Terminal Aerodrome Forecast
Issued by NWS Shreveport, LA

Home | Current Version | Previous Version | Text Only | Print | Product List | Glossary On
Versions: 1 2 3 4 5 6 7 8 9 10 11 12 13
000
FTUS44 KSHV 300719 AAA
TAFELD
TAF AMD
KELD 300719Z 3007/0106 21005KT P6SM BKN160 BKN250
     FM301300 24007KT P6SM SCT012 BKN160 BKN250
     FM301600 25009KT P6SM SCT025 BKN160 BKN250
     FM301800 24009KT P6SM VCTS BKN045CB
     FM010100 19005KT P6SM SCT050 SCT150 BKN250=

USA.gov is the U.S. government's official web portal to all federal, state and local government web resources and services.